AAL1364 MMSD-KPHX
Flight info
| Callsign | AAL1364 |
|---|---|
| Flight time | N/A |
| Altitude | 38000 |
| Route | ANEGO1A ANEGO UT67 HMO J92 VYLLA DCT TUS DCT HOTTT PINNG1 |
| Aircraft | B38M/M-SDE1FGHILORVWXY/HB1 |
Departure
| Time | 2026-05-06 04:03 |
|---|---|
| Airport | Los Cabos International Airport (MMSD) |
Arrival
| Time | N/A |
|---|---|
| Airport | Phoenix Sky Harbor International Airport (KPHX) |
| Time | Latitude | Longitude | Altitude | Speed | Heading |
|---|---|---|---|---|---|
| 2026-05-06 03:57 | 23.15676 | -109.71790 | 373 ft | 0 kts | 84° |
| 2026-05-06 03:57 | 23.15676 | -109.71793 | 373 ft | 3 kts | 84° |
| 2026-05-06 03:58 | 23.15669 | -109.71820 | 373 ft | 4 kts | 53° |
| 2026-05-06 03:58 | 23.15649 | -109.71834 | 373 ft | 4 kts | 5° |
| 2026-05-06 03:58 | 23.15636 | -109.71834 | 373 ft | 1 kts | 354° |
| 2026-05-06 03:58 | 23.15634 | -109.71833 | 373 ft | 0 kts | 354° |
| 2026-05-06 04:00 | 23.15636 | -109.71834 | 373 ft | 1 kts | 354° |
| 2026-05-06 04:00 | 23.15674 | -109.71838 | 373 ft | 12 kts | 354° |
| 2026-05-06 04:01 | 23.15718 | -109.71898 | 373 ft | 12 kts | 265° |
| 2026-05-06 04:01 | 23.15758 | -109.71933 | 373 ft | 14 kts | 346° |
| 2026-05-06 04:01 | 23.15906 | -109.71950 | 374 ft | 29 kts | 354° |
| 2026-05-06 04:01 | 23.16156 | -109.71977 | 373 ft | 43 kts | 355° |
| 2026-05-06 04:02 | 23.16466 | -109.72010 | 373 ft | 26 kts | 354° |
| 2026-05-06 04:02 | 23.16563 | -109.72023 | 373 ft | 12 kts | 349° |
| 2026-05-06 04:02 | 23.16611 | -109.72117 | 373 ft | 19 kts | 256° |
| 2026-05-06 04:02 | 23.16493 | -109.72224 | 374 ft | 30 kts | 176° |
| 2026-05-06 04:03 | 23.16008 | -109.72169 | 373 ft | 115 kts | 174° |
| 2026-05-06 04:03 | 23.14972 | -109.72050 | 600 ft | 169 kts | 174° |
| 2026-05-06 04:03 | 23.13795 | -109.71902 | 1767 ft | 161 kts | 174° |
| 2026-05-06 04:03 | 23.12664 | -109.71771 | 2753 ft | 172 kts | 173° |
| 2026-05-06 04:04 | 23.11408 | -109.71624 | 3437 ft | 191 kts | 174° |
| 2026-05-06 04:04 | 23.10013 | -109.71468 | 4105 ft | 212 kts | 176° |
| 2026-05-06 04:04 | 23.08471 | -109.71297 | 4742 ft | 233 kts | 176° |
| 2026-05-06 04:04 | 23.06794 | -109.71114 | 5437 ft | 249 kts | 176° |
| 2026-05-06 04:05 | 23.05037 | -109.70965 | 6240 ft | 257 kts | 183° |
| 2026-05-06 04:05 | 23.03307 | -109.71363 | 7041 ft | 262 kts | 209° |
| 2026-05-06 04:05 | 23.01935 | -109.72609 | 8120 ft | 259 kts | 236° |
| 2026-05-06 04:05 | 23.01204 | -109.74426 | 8887 ft | 272 kts | 262° |
| 2026-05-06 04:06 | 23.01323 | -109.76490 | 9673 ft | 281 kts | 288° |
| 2026-05-06 04:06 | 23.02337 | -109.78330 | 10497 ft | 293 kts | 311° |
| 2026-05-06 04:06 | 23.03786 | -109.79953 | 11214 ft | 306 kts | 311° |
| 2026-05-06 04:06 | 23.05260 | -109.81674 | 11970 ft | 316 kts | 310° |
| 2026-05-06 04:07 | 23.06772 | -109.83445 | 12834 ft | 322 kts | 310° |
| 2026-05-06 04:07 | 23.08315 | -109.85243 | 13710 ft | 328 kts | 310° |
| 2026-05-06 04:07 | 23.09886 | -109.87072 | 14520 ft | 334 kts | 309° |
| 2026-05-06 04:07 | 23.11482 | -109.88926 | 15350 ft | 338 kts | 309° |